Time;durP1;ratioP1;P1;durP2;ratioP2;P2;SDS_P1;SDS_P2;PMS_P1;PMS_P2;Temp;Humidity;BMP_temperature;BMP_pressure;BME280_temperature;BME280_humidity;BME280_pressure;Samples;Min_cycle;Max_cycle;Signal;HPM_P1;HPM_P2
2022/01/26 00:07:16;;;;;;;;;;;-3.00;91.40;;;;;;5056749;28;19924;-78
2022/01/26 00:09:43;;;;;;;;;;;-2.90;91.60;;;;;;5071882;28;19932;-76
2022/01/26 00:12:10;;;;;;;;;;;-2.90;91.50;;;;;;5053211;28;19928;-76
2022/01/26 00:14:41;;;;;;;;;;;-2.90;92.00;;;;;;5070504;28;19931;-76
2022/01/26 00:17:10;;;;;;;;;;;-2.80;91.90;;;;;;5068009;28;20308;-80
2022/01/26 00:19:53;;;;;;;;;;;-2.80;91.90;;;;;;5045742;28;19979;-78
2022/01/26 00:25:38;;;;;;;;;;;-2.70;92.00;;;;;;5059388;28;20389;-77
2022/01/26 00:28:30;;;;;;;;;;;-2.70;92.50;;;;;;5055987;28;20123;-77
2022/01/26 00:38:53;;;;;;;;;;;-2.60;93.00;;;;;;5035203;28;19990;-80
2022/01/26 00:41:32;;;;;;;;;;;-2.60;93.30;;;;;;5052641;28;19924;-76
2022/01/26 00:43:59;;;;;;;;;;;-2.60;93.20;;;;;;5052592;28;19925;-81
2022/01/26 00:46:26;;;;;;;;;;;-2.60;93.30;;;;;;5039522;28;20424;-78
2022/01/26 00:48:54;;;;;;;;;;;-2.60;93.20;;;;;;5057268;28;19925;-77
2022/01/26 00:51:22;;;;;;;;;;;-2.60;93.10;;;;;;5028207;28;19951;-76
2022/01/26 00:53:58;;;;;;;;;;;-2.60;93.20;;;;;;5047333;28;19979;-77
2022/01/26 00:56:25;;;;;;;;;;;-2.70;93.30;;;;;;5031609;28;19932;-80
2022/01/26 00:58:54;;;;;;;;;;;-2.70;93.20;;;;;;5061523;28;19932;-80
2022/01/26 01:01:22;;;;;;;;;;;-2.80;93.30;;;;;;5034667;28;19924;-81
2022/01/26 01:03:49;;;;;;;;;;;-2.70;93.40;;;;;;5013149;28;19975;-78
2022/01/26 01:08:47;;;;;;;;;;;-2.90;93.40;;;;;;5042332;28;19925;-76
2022/01/26 01:11:14;;;;;;;;;;;-2.90;93.40;;;;;;5046138;28;19933;-76
2022/01/26 01:13:42;;;;;;;;;;;-3.00;93.50;;;;;;5033904;28;19929;-80
2022/01/26 01:16:12;;;;;;;;;;;-2.90;93.70;;;;;;5016253;28;19956;-77
2022/01/26 01:27:00;;;;;;;;;;;-2.90;93.70;;;;;;5054658;28;20293;-76
2022/01/26 01:32:28;;;;;;;;;;;-3.00;93.90;;;;;;5002472;28;19929;-77
2022/01/26 01:34:55;;;;;;;;;;;-2.90;93.90;;;;;;5068390;28;19924;-76
2022/01/26 01:37:22;;;;;;;;;;;-2.90;94.00;;;;;;5063193;28;19975;-81
2022/01/26 01:39:49;;;;;;;;;;;-2.90;94.10;;;;;;5047401;28;19936;-77
2022/01/26 01:42:15;;;;;;;;;;;-2.90;94.10;;;;;;5048391;28;19951;-76
2022/01/26 01:44:42;;;;;;;;;;;-2.80;94.20;;;;;;5042771;28;19983;-80
2022/01/26 01:47:11;;;;;;;;;;;-2.70;94.40;;;;;;5038813;28;20343;-77
2022/01/26 01:49:38;;;;;;;;;;;-2.70;94.30;;;;;;5043566;28;19932;-77
2022/01/26 01:52:11;;;;;;;;;;;-2.70;94.30;;;;;;5067031;28;20459;-78
2022/01/26 01:54:40;;;;;;;;;;;-2.70;94.20;;;;;;5046357;28;19959;-78
2022/01/26 01:57:07;;;;;;;;;;;-2.70;94.30;;;;;;5057202;28;19925;-81
2022/01/26 01:59:35;;;;;;;;;;;-2.60;94.30;;;;;;5036042;28;20368;-78
2022/01/26 02:02:02;;;;;;;;;;;-2.60;94.00;;;;;;5054542;28;20448;-81
2022/01/26 02:04:29;;;;;;;;;;;-2.70;94.00;;;;;;5045817;28;19951;-77
2022/01/26 02:06:56;;;;;;;;;;;-2.70;94.00;;;;;;5070288;28;20397;-76
2022/01/26 02:09:23;;;;;;;;;;;-2.60;94.10;;;;;;5073753;28;19936;-77
2022/01/26 02:11:51;;;;;;;;;;;-2.60;94.00;;;;;;5054321;28;20347;-77
2022/01/26 02:14:35;;;;;;;;;;;-2.60;94.00;;;;;;5023660;28;20322;-76
2022/01/26 02:53:26;;;;;;;;;;;-2.90;93.90;;;;;;5068594;28;20047;-75
2022/01/26 02:55:58;;;;;;;;;;;-3.00;94.00;;;;;;5052846;28;19929;-80
2022/01/26 03:03:24;;;;;;;;;;;-3.00;94.30;;;;;;5067568;28;20439;-80
2022/01/26 03:06:02;;;;;;;;;;;-3.00;94.40;;;;;;5035261;28;20282;-78
2022/01/26 03:08:36;;;;;;;;;;;-3.00;94.30;;;;;;5052023;28;19933;-77
2022/01/26 03:11:12;;;;;;;;;;;-3.10;94.20;;;;;;5068028;28;20300;-76
2022/01/26 03:13:54;;;;;;;;;;;-3.10;94.40;;;;;;5045842;28;19933;-76
2022/01/26 03:16:36;;;;;;;;;;;-3.10;94.40;;;;;;5038768;28;20299;-81
2022/01/26 03:30:36;;;;;;;;;;;-3.20;94.40;;;;;;5069821;28;19935;-75
2022/01/26 03:33:23;;;;;;;;;;;-3.30;94.20;;;;;;5031562;28;19925;-79
2022/01/26 03:35:55;;;;;;;;;;;-3.30;94.20;;;;;;5048863;28;19928;-75
2022/01/26 03:38:30;;;;;;;;;;;-3.30;94.30;;;;;;5056903;28;20502;-77
2022/01/26 03:41:33;;;;;;;;;;;-3.30;94.40;;;;;;5041446;28;19925;-77
2022/01/26 03:43:44;;;;;;;;;;;-3.30;94.50;;;;;;5057491;28;20558;-80
2022/01/26 03:46:13;;;;;;;;;;;-3.30;94.50;;;;;;5064837;28;20304;-80
2022/01/26 03:49:00;;;;;;;;;;;-3.20;94.60;;;;;;5028329;28;19933;-80
2022/01/26 03:51:47;;;;;;;;;;;-3.20;94.60;;;;;;5017557;28;19925;-80
2022/01/26 03:54:16;;;;;;;;;;;-3.20;94.60;;;;;;5030070;28;19929;-80
2022/01/26 03:56:43;;;;;;;;;;;-3.20;94.50;;;;;;4999534;28;19925;-76
2022/01/26 03:59:10;;;;;;;;;;;-3.20;94.50;;;;;;5030176;28;19933;-81
2022/01/26 04:01:38;;;;;;;;;;;-3.20;94.50;;;;;;5028925;28;20420;-80
2022/01/26 04:04:06;;;;;;;;;;;-3.30;94.40;;;;;;5003243;28;19965;-78
2022/01/26 04:06:35;;;;;;;;;;;-3.30;94.40;;;;;;4990869;28;19926;-81
2022/01/26 04:09:04;;;;;;;;;;;-3.30;94.40;;;;;;5014977;28;19932;-80
2022/01/26 04:11:39;;;;;;;;;;;-3.30;94.40;;;;;;5030310;28;19925;-76
2022/01/26 04:14:08;;;;;;;;;;;-3.20;94.50;;;;;;5013169;28;19953;-77
2022/01/26 04:16:38;;;;;;;;;;;-3.30;94.30;;;;;;4996753;28;20420;-77
2022/01/26 04:19:05;;;;;;;;;;;-3.30;94.20;;;;;;4998653;28;19953;-77
2022/01/26 04:21:46;;;;;;;;;;;-3.30;94.20;;;;;;4970916;28;19953;-78
2022/01/26 04:24:24;;;;;;;;;;;-3.30;94.30;;;;;;5031207;28;20393;-76
2022/01/26 04:29:36;;;;;;;;;;;-3.30;94.20;;;;;;5045219;28;19929;-78
2022/01/26 04:32:04;;;;;;;;;;;-3.30;94.30;;;;;;5016632;28;20381;-77
2022/01/26 04:34:33;;;;;;;;;;;-3.20;94.30;;;;;;5056351;28;19924;-77
2022/01/26 04:37:16;;;;;;;;;;;-3.20;94.30;;;;;;5021067;28;19979;-76
2022/01/26 04:39:50;;;;;;;;;;;-3.20;94.30;;;;;;5023051;28;20450;-77
2022/01/26 04:42:30;;;;;;;;;;;-3.10;94.30;;;;;;5037771;28;19986;-79
2022/01/26 04:45:02;;;;;;;;;;;-3.20;94.20;;;;;;5043976;28;19925;-80
2022/01/26 04:47:30;;;;;;;;;;;-3.40;94.30;;;;;;5061477;28;20301;-76
2022/01/26 04:49:56;;;;;;;;;;;-3.40;94.30;;;;;;5035412;28;19954;-77
2022/01/26 04:52:23;;;;;;;;;;;-3.50;94.40;;;;;;5057788;28;19940;-81
2022/01/26 04:55:11;;;;;;;;;;;-3.50;94.50;;;;;;5049991;28;19931;-81
2022/01/26 04:57:38;;;;;;;;;;;-3.60;94.40;;;;;;5023927;28;19932;-78
2022/01/26 05:00:07;;;;;;;;;;;-3.70;94.60;;;;;;5033187;28;20448;-81
2022/01/26 05:02:34;;;;;;;;;;;-3.70;94.80;;;;;;5048661;28;19924;-81
2022/01/26 05:05:01;;;;;;;;;;;-3.70;94.90;;;;;;5015699;28;19926;-77
2022/01/26 05:07:28;;;;;;;;;;;-3.70;94.90;;;;;;5033841;28;19929;-79
2022/01/26 05:09:55;;;;;;;;;;;-3.70;94.90;;;;;;5015588;28;19929;-78
2022/01/26 05:12:22;;;;;;;;;;;-3.70;94.80;;;;;;5017413;28;19991;-76
2022/01/26 05:14:50;;;;;;;;;;;-3.70;94.90;;;;;;5016190;28;19937;-78
2022/01/26 05:17:20;;;;;;;;;;;-3.60;95.00;;;;;;5052337;28;19952;-81
2022/01/26 05:19:47;;;;;;;;;;;-3.60;94.90;;;;;;5036174;28;19925;-78
2022/01/26 05:22:14;;;;;;;;;;;-3.60;94.90;;;;;;5034749;28;20799;-78
2022/01/26 05:24:41;;;;;;;;;;;-3.60;94.80;;;;;;5052326;28;19974;-76
2022/01/26 05:27:08;;;;;;;;;;;-3.70;94.80;;;;;;5045829;28;20274;-76
2022/01/26 05:29:35;;;;;;;;;;;-3.70;94.90;;;;;;5057421;28;19952;-79
2022/01/26 05:32:01;;;;;;;;;;;-3.60;94.90;;;;;;5055263;28;19928;-78
2022/01/26 05:34:28;;;;;;;;;;;-3.60;94.90;;;;;;5073628;28;19974;-78
2022/01/26 05:36:55;;;;;;;;;;;-3.60;94.80;;;;;;5060728;28;19928;-77
2022/01/26 05:39:22;;;;;;;;;;;-3.60;94.80;;;;;;5030848;28;19983;-78
2022/01/26 05:41:49;;;;;;;;;;;-3.60;94.80;;;;;;5050287;28;19929;-78
2022/01/26 05:44:16;;;;;;;;;;;-3.70;94.70;;;;;;5055268;28;19928;-77
2022/01/26 05:46:48;;;;;;;;;;;-3.70;94.90;;;;;;5072756;28;20486;-77
2022/01/26 05:49:18;;;;;;;;;;;-3.70;94.80;;;;;;5067036;28;19925;-77
2022/01/26 05:51:46;;;;;;;;;;;-3.70;94.80;;;;;;5056124;28;19928;-76
2022/01/26 05:54:15;;;;;;;;;;;-3.70;94.80;;;;;;5032728;28;20381;-81
2022/01/26 05:56:42;;;;;;;;;;;-3.70;94.70;;;;;;5056619;28;20015;-76
2022/01/26 05:59:09;;;;;;;;;;;-3.70;94.70;;;;;;5073534;28;19928;-77
2022/01/26 06:01:36;;;;;;;;;;;-3.70;94.80;;;;;;5061038;28;19925;-77
2022/01/26 06:04:03;;;;;;;;;;;-3.70;94.80;;;;;;5053840;28;20370;-77
2022/01/26 06:06:30;;;;;;;;;;;-3.70;94.70;;;;;;5043574;28;19929;-78
2022/01/26 06:08:57;;;;;;;;;;;-3.70;94.70;;;;;;5052617;28;19925;-77
2022/01/26 06:11:24;;;;;;;;;;;-3.70;94.60;;;;;;5055644;28;19924;-77
2022/01/26 06:13:50;;;;;;;;;;;-3.90;94.60;;;;;;5052025;28;19972;-77
2022/01/26 06:16:17;;;;;;;;;;;-3.90;94.80;;;;;;5043290;28;20444;-77
2022/01/26 06:18:44;;;;;;;;;;;-3.80;94.70;;;;;;5037233;28;20367;-79
2022/01/26 06:21:11;;;;;;;;;;;-3.80;94.70;;;;;;5064525;28;20388;-77
2022/01/26 06:23:38;;;;;;;;;;;-3.90;94.60;;;;;;5048606;28;20466;-77
2022/01/26 06:26:05;;;;;;;;;;;-3.90;94.50;;;;;;5037617;28;20309;-80
2022/01/26 06:28:33;;;;;;;;;;;-3.90;94.70;;;;;;5031864;28;19925;-77
2022/01/26 06:31:03;;;;;;;;;;;-3.90;94.70;;;;;;5053756;28;19979;-80
2022/01/26 06:33:33;;;;;;;;;;;-3.90;94.80;;;;;;5037005;28;19979;-78
2022/01/26 06:36:00;;;;;;;;;;;-4.00;94.70;;;;;;5054707;28;20380;-77
2022/01/26 06:38:30;;;;;;;;;;;-4.00;94.80;;;;;;5043030;28;19982;-80
2022/01/26 06:40:58;;;;;;;;;;;-4.00;94.90;;;;;;5058524;28;20459;-80
2022/01/26 06:43:28;;;;;;;;;;;-3.90;94.90;;;;;;5026746;28;19933;-80
2022/01/26 06:46:02;;;;;;;;;;;-3.90;94.90;;;;;;5040386;28;20396;-77
2022/01/26 06:49:02;;;;;;;;;;;-3.80;94.80;;;;;;5057666;28;19947;-76
2022/01/26 06:51:29;;;;;;;;;;;-3.90;94.80;;;;;;5043048;28;19928;-80
2022/01/26 06:53:56;;;;;;;;;;;-3.90;94.70;;;;;;5055193;28;19932;-79
2022/01/26 06:56:23;;;;;;;;;;;-3.90;94.70;;;;;;5052702;28;19925;-77
2022/01/26 06:58:49;;;;;;;;;;;-4.00;94.60;;;;;;5058928;28;19958;-80
2022/01/26 07:01:16;;;;;;;;;;;-4.10;94.50;;;;;;5036678;28;19925;-79
2022/01/26 07:03:43;;;;;;;;;;;-4.10;94.60;;;;;;5043410;28;20007;-77
2022/01/26 07:06:10;;;;;;;;;;;-4.10;94.70;;;;;;5030577;28;19982;-79
2022/01/26 07:08:37;;;;;;;;;;;-4.10;95.20;;;;;;5039030;28;19932;-79
2022/01/26 07:11:04;;;;;;;;;;;-4.10;94.90;;;;;;5043930;28;19932;-80
2022/01/26 07:13:31;;;;;;;;;;;-4.10;94.90;;;;;;5016223;28;19925;-78
2022/01/26 07:21:29;;;;;;;;;;;-4.10;94.80;;;;;;5057143;28;20355;-78
2022/01/26 07:23:57;;;;;;;;;;;-4.10;94.90;;;;;;5054878;28;20285;-77
2022/01/26 07:26:30;;;;;;;;;;;-4.10;94.80;;;;;;5041303;28;19947;-77
2022/01/26 07:28:59;;;;;;;;;;;-4.10;94.80;;;;;;5068091;28;20386;-77
2022/01/26 07:31:26;;;;;;;;;;;-4.30;94.60;;;;;;5051967;28;19936;-77
2022/01/26 07:33:57;;;;;;;;;;;-4.30;94.70;;;;;;5038866;28;19925;-78
2022/01/26 07:36:24;;;;;;;;;;;-4.20;94.80;;;;;;5043096;28;19978;-77
2022/01/26 07:38:54;;;;;;;;;;;-4.20;94.80;;;;;;5026161;28;19932;-77
2022/01/26 07:41:21;;;;;;;;;;;-4.20;94.80;;;;;;5024820;28;19925;-78
2022/01/26 07:43:48;;;;;;;;;;;-4.30;94.80;;;;;;5050701;28;19925;-77
2022/01/26 07:46:15;;;;;;;;;;;-4.30;94.90;;;;;;5046289;28;19931;-77
2022/01/26 07:48:42;;;;;;;;;;;-4.20;94.90;;;;;;5042541;28;19931;-77
2022/01/26 07:51:08;;;;;;;;;;;-4.10;95.00;;;;;;5053136;28;19948;-77
2022/01/26 07:53:36;;;;;;;;;;;-4.10;95.00;;;;;;5038488;28;19925;-78
2022/01/26 07:56:03;;;;;;;;;;;-4.00;95.00;;;;;;5031446;28;19924;-77
2022/01/26 07:58:29;;;;;;;;;;;-4.00;95.00;;;;;;5068162;28;20316;-77
2022/01/26 08:00:57;;;;;;;;;;;-4.00;94.90;;;;;;5039746;28;19929;-79
2022/01/26 08:03:26;;;;;;;;;;;-4.00;94.90;;;;;;5049466;28;19931;-80
2022/01/26 08:05:53;;;;;;;;;;;-3.90;94.90;;;;;;5049645;28;20008;-79
2022/01/26 08:08:21;;;;;;;;;;;-3.90;94.90;;;;;;5043701;28;19925;-77
2022/01/26 08:10:49;;;;;;;;;;;-3.90;94.70;;;;;;5056792;28;20004;-79
2022/01/26 08:13:16;;;;;;;;;;;-3.90;94.60;;;;;;5040154;28;19947;-78
2022/01/26 08:15:44;;;;;;;;;;;-3.90;94.60;;;;;;5047902;28;19925;-79
2022/01/26 08:18:11;;;;;;;;;;;-3.90;94.60;;;;;;5051255;28;19932;-77
2022/01/26 08:20:42;;;;;;;;;;;-4.00;94.50;;;;;;5060965;28;20373;-78
2022/01/26 08:23:09;;;;;;;;;;;-3.90;94.50;;;;;;5047796;28;19925;-80
2022/01/26 08:25:36;;;;;;;;;;;-3.80;94.70;;;;;;5038632;28;19979;-77
2022/01/26 08:28:09;;;;;;;;;;;-3.80;94.70;;;;;;5046838;28;19925;-76
2022/01/26 08:30:38;;;;;;;;;;;-3.80;94.60;;;;;;5039690;28;20381;-77
2022/01/26 08:33:05;;;;;;;;;;;-3.70;94.70;;;;;;5039350;28;19933;-78
2022/01/26 08:35:32;;;;;;;;;;;-3.70;94.60;;;;;;5063903;28;19974;-80
2022/01/26 08:37:59;;;;;;;;;;;-3.70;94.60;;;;;;5029619;28;19975;-80
2022/01/26 08:40:26;;;;;;;;;;;-3.70;94.50;;;;;;5040695;28;19979;-78
2022/01/26 08:42:53;;;;;;;;;;;-3.60;94.50;;;;;;5028290;28;19928;-78
2022/01/26 08:45:21;;;;;;;;;;;-3.60;94.60;;;;;;5070579;28;20304;-78
2022/01/26 08:47:49;;;;;;;;;;;-3.60;94.50;;;;;;5062214;28;19952;-80
2022/01/26 08:50:17;;;;;;;;;;;-3.60;94.40;;;;;;5063845;28;20399;-78
2022/01/26 08:52:44;;;;;;;;;;;-3.50;94.40;;;;;;5051834;28;19933;-78
2022/01/26 08:55:10;;;;;;;;;;;-3.50;94.40;;;;;;5067642;28;20340;-78
2022/01/26 08:57:38;;;;;;;;;;;-3.40;94.50;;;;;;5040669;28;19970;-77
2022/01/26 09:00:07;;;;;;;;;;;-3.40;94.50;;;;;;5032937;28;19929;-78
2022/01/26 09:02:37;;;;;;;;;;;-3.40;94.30;;;;;;5047768;28;19924;-77
2022/01/26 09:05:06;;;;;;;;;;;-3.50;94.30;;;;;;5065505;28;19932;-78
2022/01/26 09:07:33;;;;;;;;;;;-3.40;94.50;;;;;;5057983;28;19925;-78
2022/01/26 09:10:02;;;;;;;;;;;-3.30;94.50;;;;;;5017786;28;19940;-79
2022/01/26 09:12:31;;;;;;;;;;;-3.30;94.40;;;;;;5043489;28;19928;-77
2022/01/26 09:15:01;;;;;;;;;;;-3.20;94.40;;;;;;5033555;28;19925;-78
2022/01/26 09:17:31;;;;;;;;;;;-3.20;94.40;;;;;;5031310;28;19925;-80
2022/01/26 09:20:03;;;;;;;;;;;-3.10;94.40;;;;;;5049660;28;20364;-80
2022/01/26 09:22:30;;;;;;;;;;;-3.10;94.30;;;;;;5028764;28;19936;-78
2022/01/26 09:24:57;;;;;;;;;;;-3.00;94.30;;;;;;5045710;28;19968;-78
2022/01/26 09:27:24;;;;;;;;;;;-3.10;94.10;;;;;;5054305;28;19932;-78
2022/01/26 09:29:51;;;;;;;;;;;-3.00;94.10;;;;;;5045368;28;19933;-80
2022/01/26 09:32:20;;;;;;;;;;;-3.00;94.00;;;;;;5022156;28;19948;-77
2022/01/26 09:34:47;;;;;;;;;;;-2.90;94.00;;;;;;5046565;28;20405;-78
2022/01/26 09:37:16;;;;;;;;;;;-2.80;94.10;;;;;;5057251;28;19948;-77
2022/01/26 09:39:44;;;;;;;;;;;-2.80;94.00;;;;;;5066209;28;19975;-80
2022/01/26 09:42:11;;;;;;;;;;;-2.70;94.10;;;;;;5040506;28;19929;-78
2022/01/26 09:44:38;;;;;;;;;;;-2.60;93.90;;;;;;5036513;28;20321;-77
2022/01/26 09:47:05;;;;;;;;;;;-2.60;93.90;;;;;;5049689;28;19928;-80
2022/01/26 09:49:34;;;;;;;;;;;-2.60;94.00;;;;;;5036562;28;19925;-77
2022/01/26 09:52:13;;;;;;;;;;;-2.70;94.00;;;;;;5036160;28;19986;-79
2022/01/26 09:54:41;;;;;;;;;;;-2.50;94.00;;;;;;5069914;28;19924;-78
2022/01/26 09:57:23;;;;;;;;;;;-2.60;94.00;;;;;;5050280;28;19982;-79
2022/01/26 09:59:50;;;;;;;;;;;-2.50;94.00;;;;;;5052214;28;19932;-76
2022/01/26 10:02:43;;;;;;;;;;;-2.50;94.10;;;;;;5065191;28;19925;-77
2022/01/26 10:05:16;;;;;;;;;;;-2.40;94.20;;;;;;5029382;28;19975;-78
2022/01/26 10:08:15;;;;;;;;;;;-2.20;94.40;;;;;;5035744;28;19975;-76
2022/01/26 10:16:29;;;;;;;;;;;-2.10;94.00;;;;;;5069809;28;20478;-77
2022/01/26 10:18:44;;;;;;;;;;;-2.00;94.10;;;;;;5060305;28;20296;-77
2022/01/26 10:21:11;;;;;;;;;;;-1.90;94.20;;;;;;5036416;28;19924;-79
2022/01/26 10:23:39;;;;;;;;;;;-1.70;94.20;;;;;;5036099;28;20389;-77
2022/01/26 10:26:07;;;;;;;;;;;-1.70;94.00;;;;;;5024634;28;20475;-80
2022/01/26 10:28:47;;;;;;;;;;;-1.60;94.00;;;;;;5038009;28;19924;-80
2022/01/26 10:31:20;;;;;;;;;;;-1.50;93.90;;;;;;5053082;28;19925;-78
2022/01/26 10:34:06;;;;;;;;;;;-1.40;94.00;;;;;;5052158;28;20033;-80
2022/01/26 10:36:34;;;;;;;;;;;-1.40;94.20;;;;;;5069358;28;19924;-79
2022/01/26 10:39:07;;;;;;;;;;;-1.30;94.00;;;;;;5045777;28;19925;-78
2022/01/26 10:41:34;;;;;;;;;;;-1.20;94.00;;;;;;5022166;28;20409;-81
2022/01/26 10:44:03;;;;;;;;;;;-1.00;94.00;;;;;;5054883;28;19987;-78
2022/01/26 10:46:32;;;;;;;;;;;-1.00;93.80;;;;;;5055713;28;20415;-77
2022/01/26 10:49:18;;;;;;;;;;;-1.00;93.70;;;;;;5043710;28;19928;-79
2022/01/26 10:54:38;;;;;;;;;;;-0.90;93.40;;;;;;5068251;28;19947;-79
2022/01/26 10:57:07;;;;;;;;;;;-0.80;93.60;;;;;;5040922;28;19925;-79
2022/01/26 10:59:34;;;;;;;;;;;-0.80;93.50;;;;;;5050695;28;19932;-77
2022/01/26 11:02:02;;;;;;;;;;;-0.60;93.60;;;;;;5037967;28;19925;-77
2022/01/26 11:04:31;;;;;;;;;;;-0.50;93.80;;;;;;5053408;28;20304;-81
2022/01/26 11:06:58;;;;;;;;;;;-0.40;93.70;;;;;;5039633;28;19925;-78
2022/01/26 11:09:27;;;;;;;;;;;-0.30;93.50;;;;;;5047547;28;19978;-81
2022/01/26 11:12:00;;;;;;;;;;;-0.10;93.40;;;;;;5031491;28;19947;-77
2022/01/26 11:14:36;;;;;;;;;;;0.00;93.20;;;;;;5067063;28;19928;-82
2022/01/26 11:17:03;;;;;;;;;;;0.10;93.00;;;;;;5071676;28;19932;-77
2022/01/26 11:19:41;;;;;;;;;;;0.10;92.80;;;;;;5040776;28;19982;-81
2022/01/26 11:22:09;;;;;;;;;;;0.20;92.80;;;;;;5052652;28;19947;-77
2022/01/26 11:24:50;;;;;;;;;;;0.40;92.70;;;;;;5051016;28;20177;-77
2022/01/26 11:27:17;;;;;;;;;;;0.50;92.80;;;;;;5043006;28;19932;-78
2022/01/26 11:29:52;;;;;;;;;;;0.70;92.80;;;;;;5046645;28;19928;-76
2022/01/26 11:32:28;;;;;;;;;;;0.90;92.90;;;;;;5037406;28;20470;-77
2022/01/26 11:34:56;;;;;;;;;;;1.10;92.80;;;;;;5061896;28;19978;-79
2022/01/26 11:37:28;;;;;;;;;;;1.20;92.50;;;;;;5053717;28;19925;-77
2022/01/26 11:45:34;;;;;;;;;;;1.70;91.30;;;;;;5054361;28;19929;-78
2022/01/26 11:48:03;;;;;;;;;;;1.90;91.40;;;;;;5065658;28;19932;-76
2022/01/26 11:50:30;;;;;;;;;;;2.00;91.20;;;;;;5036025;28;19928;-79
2022/01/26 11:53:02;;;;;;;;;;;2.20;91.00;;;;;;5064685;28;19932;-78
2022/01/26 11:55:51;;;;;;;;;;;2.30;90.60;;;;;;5043540;28;19924;-78
2022/01/26 11:58:37;;;;;;;;;;;2.40;90.30;;;;;;5038174;28;19925;-78
2022/01/26 12:01:14;;;;;;;;;;;2.50;89.60;;;;;;5048120;28;20023;-78
2022/01/26 12:03:45;;;;;;;;;;;2.70;90.00;;;;;;5045384;28;20317;-78
2022/01/26 12:06:21;;;;;;;;;;;2.90;88.10;;;;;;5031951;28;19925;-76
2022/01/26 12:08:48;;;;;;;;;;;3.00;87.30;;;;;;5028015;28;19931;-76
2022/01/26 12:11:16;;;;;;;;;;;3.10;86.40;;;;;;5049491;28;19929;-78
2022/01/26 12:13:44;;;;;;;;;;;3.10;85.50;;;;;;5056467;28;20388;-78
2022/01/26 12:16:15;;;;;;;;;;;3.10;85.00;;;;;;5047668;28;19959;-79
2022/01/26 12:18:53;;;;;;;;;;;3.20;84.70;;;;;;5043629;28;19928;-76
2022/01/26 12:38:20;;;;;;;;;;;3.70;81.20;;;;;;5011331;28;19934;-78
2022/01/26 12:43:35;;;;;;;;;;;3.90;80.20;;;;;;5010799;28;20419;-76
2022/01/26 12:46:03;;;;;;;;;;;4.00;79.20;;;;;;5017216;28;19936;-76
2022/01/26 12:48:34;;;;;;;;;;;4.10;78.20;;;;;;5026330;28;19933;-76
2022/01/26 12:51:05;;;;;;;;;;;4.10;78.60;;;;;;5032471;28;19934;-78
2022/01/26 12:53:32;;;;;;;;;;;4.30;77.80;;;;;;5029596;28;20436;-76
2022/01/26 12:56:00;;;;;;;;;;;4.20;76.20;;;;;;5030556;28;19972;-77
2022/01/26 12:58:28;;;;;;;;;;;4.20;77.20;;;;;;5017805;28;20448;-77
2022/01/26 13:01:03;;;;;;;;;;;4.30;77.30;;;;;;5029405;28;20467;-76
2022/01/26 13:03:40;;;;;;;;;;;4.40;76.50;;;;;;5015376;28;19980;-79
2022/01/26 13:06:12;;;;;;;;;;;4.50;76.40;;;;;;5014421;28;20275;-77
2022/01/26 13:08:43;;;;;;;;;;;4.60;76.20;;;;;;5025612;28;19983;-76
2022/01/26 13:11:10;;;;;;;;;;;4.60;75.50;;;;;;5033771;28;19929;-77
2022/01/26 13:13:37;;;;;;;;;;;4.60;75.60;;;;;;5025783;28;19925;-77
2022/01/26 13:16:18;;;;;;;;;;;4.70;75.30;;;;;;5012878;28;19987;-78
2022/01/26 13:19:10;;;;;;;;;;;4.90;75.10;;;;;;5029660;28;19940;-76
2022/01/26 13:24:24;;;;;;;;;;;5.10;73.70;;;;;;5054591;28;20435;-77
2022/01/26 13:37:32;;;;;;;;;;;5.50;71.90;;;;;;5037485;28;19995;-76
2022/01/26 13:52:53;;;;;;;;;;;5.60;71.00;;;;;;5036922;28;19937;-79
2022/01/26 14:00:36;;;;;;;;;;;5.50;70.10;;;;;;5051777;28;19928;-76
2022/01/26 14:03:05;;;;;;;;;;;5.40;70.90;;;;;;5045137;28;19925;-78
2022/01/26 14:05:33;;;;;;;;;;;5.50;71.00;;;;;;5050454;28;19925;-78
2022/01/26 14:08:00;;;;;;;;;;;5.30;71.30;;;;;;5050461;28;19986;-78
2022/01/26 14:10:27;;;;;;;;;;;5.40;71.80;;;;;;5032452;28;19979;-80
2022/01/26 14:12:54;;;;;;;;;;;5.40;72.00;;;;;;5032428;28;20443;-79
2022/01/26 14:15:27;;;;;;;;;;;5.50;72.10;;;;;;5031955;28;19929;-77
2022/01/26 14:25:50;;;;;;;;;;;5.50;70.90;;;;;;5050145;28;19928;-77
2022/01/26 14:28:21;;;;;;;;;;;5.50;70.50;;;;;;5031254;28;19929;-78
2022/01/26 14:31:09;;;;;;;;;;;5.50;70.70;;;;;;5032258;28;20451;-76
2022/01/26 15:19:00;;;;;;;;;;;5.70;70.80;;;;;;5059365;28;20016;-78
2022/01/26 15:58:44;;;;;;;;;;;3.90;76.80;;;;;;5056169;28;19951;-78
2022/01/26 16:07:28;;;;;;;;;;;3.50;76.80;;;;;;4955036;28;19926;-76
2022/01/26 16:16:33;;;;;;;;;;;3.10;78.70;;;;;;5025969;28;20355;-76
2022/01/26 16:53:48;;;;;;;;;;;0.90;83.90;;;;;;5068962;28;19931;-76
2022/01/26 17:21:02;;;;;;;;;;;0.00;88.10;;;;;;5074848;28;19924;-76
2022/01/26 18:04:35;;;;;;;;;;;-0.70;92.60;;;;;;5053199;28;19935;-77
2022/01/26 18:15:53;;;;;;;;;;;-0.70;92.40;;;;;;5011097;28;19930;-76
2022/01/26 18:51:31;;;;;;;;;;;-1.00;92.70;;;;;;5062685;28;20332;-77
2022/01/26 18:53:58;;;;;;;;;;;-0.90;92.80;;;;;;5042707;28;20015;-77
2022/01/26 18:56:27;;;;;;;;;;;-1.00;92.60;;;;;;5060205;28;19978;-78
2022/01/26 18:58:54;;;;;;;;;;;-0.90;92.50;;;;;;5058772;28;19931;-77
2022/01/26 19:01:21;;;;;;;;;;;-1.00;92.40;;;;;;5053519;28;20336;-76
2022/01/26 19:03:48;;;;;;;;;;;-1.00;92.40;;;;;;5063045;28;19959;-76
2022/01/26 19:06:15;;;;;;;;;;;-1.00;92.50;;;;;;5060818;28;20474;-76
2022/01/26 19:08:42;;;;;;;;;;;-1.00;92.60;;;;;;5067045;28;20348;-78
2022/01/26 19:11:10;;;;;;;;;;;-1.10;92.50;;;;;;5060557;28;19928;-76
2022/01/26 19:13:39;;;;;;;;;;;-1.10;92.90;;;;;;5060035;28;19932;-75
2022/01/26 19:16:17;;;;;;;;;;;-1.10;93.00;;;;;;5058843;28;20289;-78
2022/01/26 19:19:15;;;;;;;;;;;-1.10;92.80;;;;;;5035527;28;19959;-78
2022/01/26 19:26:53;;;;;;;;;;;-1.10;92.80;;;;;;5062507;28;19990;-76
2022/01/26 19:29:46;;;;;;;;;;;-1.10;92.80;;;;;;5041804;28;19990;-77
2022/01/26 19:51:21;;;;;;;;;;;-1.30;93.20;;;;;;5056022;28;19928;-79
2022/01/26 19:53:48;;;;;;;;;;;-1.30;93.40;;;;;;5049582;28;20300;-78
2022/01/26 19:56:15;;;;;;;;;;;-1.40;93.50;;;;;;5044878;28;20411;-76
2022/01/26 19:58:42;;;;;;;;;;;-1.40;93.60;;;;;;5067850;28;20022;-78
2022/01/26 20:01:09;;;;;;;;;;;-1.30;93.70;;;;;;5038691;28;20343;-77
2022/01/26 20:03:36;;;;;;;;;;;-1.30;93.60;;;;;;5057256;28;19924;-77
2022/01/26 20:06:06;;;;;;;;;;;-1.30;93.60;;;;;;5052819;28;19929;-76
2022/01/26 20:08:42;;;;;;;;;;;-1.40;93.40;;;;;;5050984;28;19932;-79
2022/01/26 20:11:24;;;;;;;;;;;-1.40;93.30;;;;;;5053602;28;19931;-78
2022/01/26 20:13:53;;;;;;;;;;;-1.50;93.40;;;;;;5070154;28;20734;-77
2022/01/26 20:16:20;;;;;;;;;;;-1.50;93.50;;;;;;5037602;28;19925;-77
2022/01/26 20:18:46;;;;;;;;;;;-1.60;93.70;;;;;;5040323;28;19982;-77
2022/01/26 20:21:13;;;;;;;;;;;-1.70;93.70;;;;;;5052252;28;19947;-78
2022/01/26 20:23:40;;;;;;;;;;;-1.70;93.80;;;;;;5066991;28;19935;-77
2022/01/26 20:26:08;;;;;;;;;;;-1.70;93.80;;;;;;5034089;28;19924;-78
2022/01/26 20:28:36;;;;;;;;;;;-1.80;93.80;;;;;;5033628;28;19932;-80
2022/01/26 20:31:05;;;;;;;;;;;-1.80;93.80;;;;;;5039856;28;20367;-76
2022/01/26 20:33:32;;;;;;;;;;;-1.80;94.00;;;;;;5040580;28;20380;-78
2022/01/26 20:35:59;;;;;;;;;;;-1.80;93.90;;;;;;5041594;28;20304;-77
2022/01/26 20:38:26;;;;;;;;;;;-1.80;93.90;;;;;;5017401;28;20274;-76
2022/01/26 20:40:53;;;;;;;;;;;-1.80;93.90;;;;;;5036814;28;19933;-76
2022/01/26 20:43:24;;;;;;;;;;;-1.80;93.90;;;;;;5038518;28;20305;-81
2022/01/26 20:45:54;;;;;;;;;;;-1.80;93.90;;;;;;5024584;28;19925;-80
2022/01/26 20:48:21;;;;;;;;;;;-1.80;94.10;;;;;;5040327;28;20362;-81
2022/01/26 20:50:48;;;;;;;;;;;-1.80;94.20;;;;;;5051871;28;19931;-77
2022/01/26 20:53:15;;;;;;;;;;;-1.80;94.60;;;;;;5032936;28;19960;-78
2022/01/26 20:55:42;;;;;;;;;;;-1.80;94.20;;;;;;5032361;28;19975;-77
2022/01/26 20:58:18;;;;;;;;;;;-1.90;94.00;;;;;;5042501;28;19925;-81
2022/01/26 21:01:01;;;;;;;;;;;-1.80;94.10;;;;;;5057596;28;22183;-76
2022/01/26 21:03:28;;;;;;;;;;;-1.80;94.20;;;;;;5037326;28;19925;-78
2022/01/26 21:05:58;;;;;;;;;;;-1.80;94.20;;;;;;5032440;28;20440;-80
2022/01/26 21:08:33;;;;;;;;;;;-1.80;94.20;;;;;;5041948;28;20405;-80
2022/01/26 21:11:02;;;;;;;;;;;-1.80;94.20;;;;;;5046907;28;19979;-78
2022/01/26 21:13:33;;;;;;;;;;;-1.80;94.20;;;;;;5045720;28;20019;-78
2022/01/26 21:16:01;;;;;;;;;;;-1.80;94.20;;;;;;5043455;28;20313;-78
2022/01/26 21:18:33;;;;;;;;;;;-1.90;94.20;;;;;;5035818;28;19925;-80
2022/01/26 21:21:04;;;;;;;;;;;-1.90;94.20;;;;;;5045253;28;19925;-77
2022/01/26 21:23:32;;;;;;;;;;;-1.90;94.20;;;;;;5040660;28;19924;-77
2022/01/26 21:25:59;;;;;;;;;;;-1.90;94.20;;;;;;5039299;28;20394;-77
2022/01/26 21:28:26;;;;;;;;;;;-1.90;94.30;;;;;;5047185;28;19932;-77
2022/01/26 21:30:53;;;;;;;;;;;-1.90;94.20;;;;;;5032869;28;19975;-77
2022/01/26 21:33:22;;;;;;;;;;;-1.90;94.20;;;;;;5039707;28;20447;-77
2022/01/26 21:35:49;;;;;;;;;;;-2.00;94.10;;;;;;5038424;28;19925;-76
2022/01/26 21:38:15;;;;;;;;;;;-1.90;94.20;;;;;;5042399;28;20451;-77
2022/01/26 21:40:43;;;;;;;;;;;-1.90;94.20;;;;;;5042988;28;19925;-78
2022/01/26 21:43:10;;;;;;;;;;;-1.90;94.30;;;;;;5037995;28;19929;-78